Time;durP1;ratioP1;P1;durP2;ratioP2;P2;SDS_P1;SDS_P2;PMS_P1;PMS_P2;Temp;Humidity;BMP_temperature;BMP_pressure;BME280_temperature;BME280_humidity;BME280_pressure;Samples;Min_cycle;Max_cycle;Signal;HPM_P1;HPM_P2
2022/10/23 00:01:38;;;;;;;26.68;16.05;;;;;;;10.28;89.56;98862.98;1699692;84;25611;-65
2022/10/23 00:04:13;;;;;;;26.07;16.65;;;;;;;10.28;89.67;98861.03;1699681;84;28187;-65
2022/10/23 00:06:40;;;;;;;23.95;16.23;;;;;;;10.34;89.61;98863.13;1699778;84;25590;-65
2022/10/23 00:09:11;;;;;;;25.40;14.70;;;;;;;10.39;89.67;98868.47;1699451;84;25483;-65
2022/10/23 00:11:37;;;;;;;;;;;;;;;10.44;89.45;98866.73;1702128;84;26175;-64
2022/10/23 00:14:06;;;;;;;22.85;14.10;;;;;;;10.46;89.30;98864.54;1699389;84;25611;-64
2022/10/23 00:16:34;;;;;;;25.08;15.13;;;;;;;10.47;89.19;98856.56;1699361;84;27396;-64
2022/10/23 00:19:01;;;;;;;27.22;15.95;;;;;;;10.47;89.30;98861.49;1699806;84;25591;-64
2022/10/23 00:21:27;;;;;;;24.92;15.18;;;;;;;10.48;89.16;98868.58;1699450;84;25586;-64
2022/10/23 00:23:53;;;;;;;22.77;14.07;;;;;;;10.40;89.11;98865.98;1699707;84;26626;-64
2022/10/23 00:26:20;;;;;;;22.30;13.43;;;;;;;10.39;89.07;98864.37;1699334;84;25591;-64
2022/10/23 00:28:50;;;;;;;25.32;15.13;;;;;;;10.34;88.95;98860.39;1699437;84;27497;-65
2022/10/23 00:31:17;;;;;;;26.48;15.08;;;;;;;10.32;89.09;98859.05;1699919;84;25626;-65
2022/10/23 00:33:44;;;;;;;24.90;14.43;;;;;;;10.31;89.18;98863.73;1699747;84;25603;-65
2022/10/23 00:36:13;;;;;;;23.75;14.35;;;;;;;10.29;88.84;98864.05;1699414;84;25783;-65
2022/10/23 00:38:39;;;;;;;22.05;13.78;;;;;;;10.29;88.85;98866.78;1699831;84;25607;-65
2022/10/23 00:41:08;;;;;;;33.45;21.85;;;;;;;10.26;89.00;98861.09;1699286;84;27496;-65
2022/10/23 00:43:40;;;;;;;20.85;12.33;;;;;;;10.28;89.07;98857.50;1699558;84;25481;-65
2022/10/23 00:46:06;;;;;;;20.50;13.60;;;;;;;10.31;89.48;98848.67;1695529;84;25665;-65
2022/10/23 00:48:32;;;;;;;22.13;12.37;;;;;;;10.31;89.48;98850.05;1699759;84;25835;-65
2022/10/23 00:50:59;;;;;;;23.30;13.70;;;;;;;10.29;89.39;98855.83;1699356;84;25594;-65
2022/10/23 00:53:25;;;;;;;24.07;13.25;;;;;;;10.28;89.55;98861.03;1699452;84;28383;-65
2022/10/23 00:55:54;;;;;;;22.22;12.68;;;;;;;10.26;89.65;98868.77;1699176;84;26175;-65
2022/10/23 00:58:21;;;;;;;22.00;13.22;;;;;;;10.24;90.40;98868.80;1699398;84;25693;-64
2022/10/23 01:00:52;;;;;;;23.07;13.43;;;;;;;10.25;89.81;98864.96;1699321;84;27856;-64
2022/10/23 01:03:20;;;;;;;;;;;;;;;10.28;89.91;98871.98;1701051;84;25637;-64
2022/10/23 01:05:55;;;;;;;20.88;12.18;;;;;;;10.29;89.84;98872.81;1699603;84;27476;-64
2022/10/23 01:08:48;;;;;;;22.35;12.78;;;;;;;10.27;90.16;98877.77;1699345;84;25468;-64
2022/10/23 01:11:32;;;;;;;23.57;12.55;;;;;;;10.28;90.38;98877.47;1699626;84;25611;-64
2022/10/23 01:14:12;;;;;;;19.80;11.83;;;;;;;10.34;90.43;98876.82;1696002;84;25739;-64
2022/10/23 01:17:13;;;;;;;19.65;12.73;;;;;;;10.37;90.54;98885.80;1699835;84;25617;-64
2022/10/23 01:20:07;;;;;;;18.40;11.90;;;;;;;10.40;90.52;98882.99;1699722;84;27510;-64
2022/10/23 01:23:30;;;;;;;22.93;13.58;;;;;;;10.44;90.36;98878.52;1699174;84;27179;-64
2022/10/23 01:26:24;;;;;;;25.50;13.78;;;;;;;10.47;90.35;98876.56;1699651;84;25610;-65
2022/10/23 01:29:11;;;;;;;24.85;14.38;;;;;;;10.47;90.11;98881.22;1699605;84;25697;-65
2022/10/23 01:32:04;;;;;;;30.65;14.65;;;;;;;10.40;90.13;98881.05;1699337;84;25402;-65
2022/10/23 01:34:44;;;;;;;24.07;13.75;;;;;;;10.37;90.25;98878.13;1641849;87;27474;-65
2022/10/23 01:37:14;;;;;;;20.25;12.23;;;;;;;10.27;90.19;98884.62;1587375;90;33500;-65
2022/10/23 01:39:47;;;;;;;20.15;12.30;;;;;;;10.25;90.33;98876.70;1587649;90;25870;-65
2022/10/23 01:42:24;;;;;;;21.90;11.25;;;;;;;10.25;90.99;98871.81;1587782;90;26695;-65
2022/10/23 01:45:01;;;;;;;19.75;11.35;;;;;;;10.26;91.17;98873.42;1587693;90;25852;-65
2022/10/23 01:47:32;;;;;;;18.67;11.00;;;;;;;10.27;91.60;98875.03;1585981;90;27393;-65
2022/10/23 01:50:00;;;;;;;22.70;12.88;;;;;;;10.29;91.11;98876.92;1587666;90;25799;-65
2022/10/23 01:52:27;;;;;;;18.37;10.75;;;;;;;10.31;91.14;98875.24;1587586;90;25732;-65
2022/10/23 01:54:58;;;;;;;21.95;12.98;;;;;;;10.34;91.88;98878.73;1587484;90;25894;-65
2022/10/23 01:57:28;;;;;;;20.70;11.75;;;;;;;10.37;91.31;98885.80;1588114;90;25806;-65
2022/10/23 02:00:01;;;;;;;19.32;11.05;;;;;;;10.43;91.10;98886.49;1587792;88;27634;-65
2022/10/23 02:02:27;;;;;;;20.23;11.83;;;;;;;10.46;91.77;98890.02;1588312;90;25563;-65
2022/10/23 02:05:23;;;;;;;20.62;12.05;;;;;;;10.47;91.63;98888.89;1588048;90;25680;-65
2022/10/23 02:07:50;;;;;;;20.65;11.93;;;;;;;10.50;91.39;98888.83;1588203;90;26633;-65
2022/10/23 02:10:18;;;;;;;21.27;12.43;;;;;;;10.52;91.40;98884.68;1594034;88;25587;-65
2022/10/23 02:13:02;;;;;;;24.15;12.88;;;;;;;10.56;91.33;98888.97;1622038;88;27406;-65
2022/10/23 02:15:39;;;;;;;25.70;13.68;;;;;;;10.58;91.24;98887.29;1685050;85;25623;-65
2022/10/23 02:18:27;;;;;;;22.15;11.73;;;;;;;10.58;91.55;98891.40;1704970;84;25738;-66
2022/10/23 02:21:02;;;;;;;25.95;14.53;;;;;;;10.54;92.17;98881.63;1703978;84;25749;-65
2022/10/23 02:23:36;;;;;;;25.82;14.25;;;;;;;10.52;91.76;98887.42;1702117;84;25173;-65
2022/10/23 02:26:11;;;;;;;26.25;13.55;;;;;;;10.52;91.65;98885.23;1705173;84;26850;-63
2022/10/23 02:28:51;;;;;;;29.55;16.07;;;;;;;10.49;92.01;98886.66;1704576;84;25459;-64
2022/10/23 02:31:21;;;;;;;28.30;15.20;;;;;;;10.48;91.88;98889.13;1705456;84;25705;-64
2022/10/23 02:33:47;;;;;;;27.93;15.28;;;;;;;10.48;91.53;98887.77;1705880;84;26697;-64
2022/10/23 02:36:17;;;;;;;32.50;17.23;;;;;;;10.47;91.07;98894.37;1705287;84;25682;-63
2022/10/23 02:38:44;;;;;;;32.67;17.95;;;;;;;10.44;90.86;98885.91;1705340;84;28254;-63
2022/10/23 02:41:37;;;;;;;35.58;20.08;;;;;;;10.45;90.98;98893.83;1704887;84;25495;-64
2022/10/23 02:44:41;;;;;;;32.30;18.27;;;;;;;10.46;90.83;98898.23;1613187;88;25741;-64
2022/10/23 02:47:30;;;;;;;35.75;18.90;;;;;;;10.47;90.99;98899.03;1612790;89;26584;-64
2022/10/23 02:50:29;;;;;;;36.55;19.92;;;;;;;10.45;91.16;98899.88;1613069;88;25555;-64
2022/10/23 02:53:03;;;;;;;35.25;18.65;;;;;;;10.44;91.50;98899.61;1613177;87;27325;-64
2022/10/23 02:55:50;;;;;;;36.25;18.55;;;;;;;10.44;91.57;98899.06;1613031;88;25910;-64
2022/10/23 02:58:38;;;;;;;30.68;16.50;;;;;;;10.43;91.75;98901.56;1612805;89;25623;-64
2022/10/23 03:01:17;;;;;;;35.40;18.55;;;;;;;10.41;92.06;98895.56;1612209;89;25810;-64
2022/10/23 03:03:49;;;;;;;36.95;18.77;;;;;;;10.41;91.74;98896.94;1613183;88;25556;-64
2022/10/23 03:06:15;;;;;;;36.98;19.85;;;;;;;10.40;91.96;98893.95;1612524;88;26861;-64
2022/10/23 03:08:46;;;;;;;35.98;19.73;;;;;;;10.43;92.01;98897.45;1612747;89;25715;-65
2022/10/23 03:11:12;;;;;;;38.28;19.55;;;;;;;10.45;92.07;98891.08;1611724;88;25838;-64
2022/10/23 03:13:38;;;;;;;30.10;16.32;;;;;;;10.48;92.35;98902.05;1613147;88;25788;-65
2022/10/23 03:16:04;;;;;;;32.53;17.23;;;;;;;10.53;92.65;98903.28;1612721;88;25825;-65
2022/10/23 03:18:30;;;;;;;34.38;18.37;;;;;;;10.56;92.53;98905.41;1612887;89;27671;-65
2022/10/23 03:20:56;;;;;;;34.90;19.40;;;;;;;10.59;92.48;98898.52;1670431;84;27202;-65
2022/10/23 03:23:23;;;;;;;35.73;18.20;;;;;;;10.62;92.46;98900.07;1705314;84;25481;-65
2022/10/23 03:25:49;;;;;;;35.25;18.10;;;;;;;10.66;92.73;98898.36;1704967;84;25804;-64
2022/10/23 03:28:15;;;;;;;28.45;16.73;;;;;;;10.72;92.40;98906.45;1705299;84;25750;-65
2022/10/23 03:30:41;;;;;;;29.05;16.75;;;;;;;10.75;92.38;98897.61;1704963;84;27545;-65
2022/10/23 03:33:07;;;;;;;32.73;17.15;;;;;;;10.79;92.68;98897.23;1705250;84;25829;-65
2022/10/23 03:35:33;;;;;;;33.10;17.35;;;;;;;10.81;92.42;98899.66;1705004;84;25602;-65
2022/10/23 03:37:59;;;;;;;34.00;17.82;;;;;;;10.85;92.44;98902.06;1705031;84;25975;-65
2022/10/23 03:40:25;;;;;;;32.42;17.15;;;;;;;10.88;92.15;98910.45;1705320;84;25487;-65
2022/10/23 03:42:51;;;;;;;34.70;18.27;;;;;;;10.92;92.22;98912.03;1705219;84;27501;-65
2022/10/23 03:45:18;;;;;;;31.17;17.82;;;;;;;10.96;91.98;98907.53;1704950;84;26078;-64
2022/10/23 03:47:44;;;;;;;34.00;17.98;;;;;;;10.99;91.89;98912.41;1705374;84;25605;-65
2022/10/23 03:50:12;;;;;;;32.90;16.60;;;;;;;11.02;91.83;98909.59;1705088;84;25603;-65
2022/10/23 03:52:40;;;;;;;29.27;16.42;;;;;;;11.06;91.85;98911.16;1705511;84;25637;-65
2022/10/23 03:55:08;;;;;;;28.35;15.15;;;;;;;11.07;91.70;98910.03;1705207;84;27474;-65
2022/10/23 03:57:34;;;;;;;24.43;13.10;;;;;;;11.07;91.71;98908.66;1705056;84;25678;-64
2022/10/23 04:00:00;;;;;;;28.42;15.55;;;;;;;11.06;91.70;98904.31;1708250;83;25515;-63
2022/10/23 04:02:26;;;;;;;25.72;14.83;;;;;;;11.05;91.68;98902.11;1711055;83;25811;-63
2022/10/23 04:04:53;;;;;;;25.55;14.53;;;;;;;11.06;91.54;98905.13;1710475;83;25633;-64
2022/10/23 04:07:20;;;;;;;27.80;15.13;;;;;;;11.06;91.69;98910.61;1710831;83;27837;-63
2022/10/23 04:09:46;;;;;;;24.35;14.93;;;;;;;11.07;91.41;98905.92;1710375;83;25923;-64
2022/10/23 04:12:13;;;;;;;25.37;13.78;;;;;;;11.06;91.34;98904.31;1710393;83;25761;-64
2022/10/23 04:14:39;;;;;;;25.50;14.78;;;;;;;11.06;91.18;98904.31;1710583;83;25740;-64
2022/10/23 04:17:05;;;;;;;24.75;13.53;;;;;;;11.04;91.01;98903.25;1710896;83;25497;-64
2022/10/23 04:19:32;;;;;;;22.70;13.55;;;;;;;11.02;91.06;98910.97;1710882;83;27632;-64
2022/10/23 04:21:58;;;;;;;22.17;13.98;;;;;;;10.98;91.12;98905.31;1710871;83;25606;-64
2022/10/23 04:24:25;;;;;;;21.85;12.82;;;;;;;11.00;91.18;98911.86;1710659;83;25651;-64
2022/10/23 04:26:51;;;;;;;19.30;11.12;;;;;;;10.97;91.20;98906.41;1710668;83;25759;-64
2022/10/23 04:29:21;;;;;;;21.35;12.88;;;;;;;10.91;91.55;98908.47;1710781;83;25676;-65
2022/10/23 04:31:46;;;;;;;22.70;13.10;;;;;;;10.86;91.57;98900.93;1705170;83;25894;-65
2022/10/23 04:34:12;;;;;;;27.70;13.98;;;;;;;10.86;91.57;98900.93;1710628;83;25814;-65
2022/10/23 04:36:38;;;;;;;24.90;14.20;;;;;;;10.83;91.67;98909.77;1710455;83;25512;-65
2022/10/23 04:39:04;;;;;;;23.05;13.10;;;;;;;10.80;91.72;98909.84;1710847;83;25714;-65
2022/10/23 04:41:31;;;;;;;26.55;15.35;;;;;;;10.75;92.08;98904.46;1711300;83;25693;-65
2022/10/23 04:43:58;;;;;;;23.80;12.15;;;;;;;10.74;91.94;98907.75;1710678;83;28083;-64
2022/10/23 04:46:24;;;;;;;25.30;13.05;;;;;;;10.72;92.41;98899.05;1710523;83;25715;-64
2022/10/23 04:48:50;;;;;;;22.22;12.58;;;;;;;10.76;92.13;98908.81;1711005;83;25500;-64
2022/10/23 04:51:17;;;;;;;22.93;12.93;;;;;;;10.74;92.29;98904.22;1710823;83;25934;-65
2022/10/23 04:53:43;;;;;;;25.95;13.00;;;;;;;10.75;92.10;98900.34;1710677;83;25741;-65
2022/10/23 04:56:14;;;;;;;21.55;11.95;;;;;;;10.76;92.08;98899.22;1710560;83;28302;-65
2022/10/23 04:58:44;;;;;;;;;;;;;;;10.77;92.20;98902.23;1713350;83;25897;-65
2022/10/23 05:01:15;;;;;;;23.35;12.55;;;;;;;10.76;91.99;98900.04;1670480;85;25721;-65
2022/10/23 05:03:48;;;;;;;37.93;18.37;;;;;;;10.75;92.10;98898.98;1675318;85;26106;-65
2022/10/23 05:06:19;;;;;;;28.57;15.53;;;;;;;10.73;92.16;98896.55;1697032;84;25438;-65
2022/10/23 05:08:55;;;;;;;24.95;12.82;;;;;;;10.74;92.10;98891.30;1697279;84;27474;-64
2022/10/23 05:11:21;;;;;;;41.15;19.70;;;;;;;10.73;92.41;98897.91;1696562;84;25492;-65
2022/10/23 05:13:47;;;;;;;30.68;16.87;;;;;;;10.74;92.20;98898.73;1697483;84;25622;-65
2022/10/23 05:16:22;;;;;;;26.93;13.70;;;;;;;10.76;92.11;98897.30;1697182;84;43871;-64
2022/10/23 05:18:49;;;;;;;35.58;17.73;;;;;;;10.78;92.14;98901.10;1695597;84;25494;-65
2022/10/23 05:21:20;;;;;;;43.42;18.65;;;;;;;10.81;92.10;98903.23;1697015;84;28196;-65
2022/10/23 05:23:46;;;;;;;26.35;14.80;;;;;;;10.82;91.85;98902.09;1697090;84;25581;-64
2022/10/23 05:26:13;;;;;;;19.87;10.60;;;;;;;10.76;92.13;98906.07;1697436;84;25634;-66
2022/10/23 05:28:39;;;;;;;25.32;14.87;;;;;;;10.75;92.40;98903.91;1697435;84;25730;-66
2022/10/23 05:31:06;;;;;;;27.77;14.58;;;;;;;10.72;92.28;98905.89;1697038;84;25428;-66
2022/10/23 05:33:34;;;;;;;24.98;14.03;;;;;;;10.71;92.39;98909.73;1697204;84;27493;-66
2022/10/23 05:36:01;;;;;;;21.30;11.40;;;;;;;10.71;92.34;98914.42;1697182;84;25452;-66
2022/10/23 05:38:31;;;;;;;35.55;20.05;;;;;;;10.71;92.67;98920.70;1697462;84;25506;-66
2022/10/23 05:40:57;;;;;;;21.80;12.30;;;;;;;10.74;92.36;98923.41;1696814;84;27808;-66
2022/10/23 05:43:26;;;;;;;24.52;13.28;;;;;;;10.74;92.31;98930.26;1697560;84;25428;-65
2022/10/23 05:45:52;;;;;;;21.95;12.60;;;;;;;10.75;92.31;98933.24;1696893;84;25866;-66
2022/10/23 05:48:18;;;;;;;37.35;19.65;;;;;;;10.76;92.42;98937.59;1697169;84;25757;-66
2022/10/23 05:50:44;;;;;;;24.65;13.25;;;;;;;10.78;92.54;98940.30;1697081;84;25709;-66
2022/10/23 05:53:11;;;;;;;28.45;14.78;;;;;;;10.79;92.54;98939.72;1697287;84;25908;-65
2022/10/23 05:55:37;;;;;;;24.67;13.72;;;;;;;10.81;92.61;98943.53;1697332;84;25684;-66
2022/10/23 05:58:04;;;;;;;25.43;15.32;;;;;;;10.83;92.62;98951.72;1697165;84;27401;-66
2022/10/23 06:00:31;;;;;;;29.48;14.75;;;;;;;10.86;92.69;98951.64;1696980;84;25655;-66
2022/10/23 06:03:01;;;;;;;24.20;13.05;;;;;;;10.86;92.71;98955.21;1697060;84;25684;-66
2022/10/23 06:05:27;;;;;;;25.35;13.48;;;;;;;10.94;92.66;98963.81;1697424;84;27245;-66
2022/10/23 06:07:58;;;;;;;23.07;13.53;;;;;;;10.95;92.72;98957.20;1697516;84;25677;-66
2022/10/23 06:10:26;;;;;;;26.30;15.65;;;;;;;10.96;92.54;98969.23;1697472;84;27544;-66
2022/10/23 06:12:52;;;;;;;27.98;14.65;;;;;;;10.96;92.53;98968.41;1697552;84;25656;-66
2022/10/23 06:15:19;;;;;;;25.37;13.85;;;;;;;10.98;92.62;98977.16;1697324;84;25492;-66
2022/10/23 06:17:45;;;;;;;26.42;15.28;;;;;;;10.99;92.45;98972.73;1697301;84;25731;-66
2022/10/23 06:20:12;;;;;;;24.43;15.00;;;;;;;11.00;92.45;98979.03;1697304;84;25428;-66
2022/10/23 06:22:38;;;;;;;26.52;15.23;;;;;;;11.03;92.46;98972.94;1697380;84;27619;-66
2022/10/23 06:25:07;;;;;;;25.23;14.80;;;;;;;11.07;92.30;98980.79;1693685;84;25452;-66
2022/10/23 06:27:33;;;;;;;25.72;14.83;;;;;;;11.12;92.21;98982.05;1697467;84;25677;-66
2022/10/23 06:29:59;;;;;;;28.80;16.27;;;;;;;11.21;92.09;98984.05;1697488;84;25819;-66
2022/10/23 06:32:26;;;;;;;21.70;11.33;;;;;;;11.24;91.89;98979.31;1697206;84;25626;-66
2022/10/23 06:34:52;;;;;;;24.00;14.50;;;;;;;11.26;91.75;98979.83;1697428;84;26869;-66
2022/10/23 06:37:18;;;;;;;24.43;14.00;;;;;;;11.28;91.67;98974.27;1697000;84;25671;-66
2022/10/23 06:39:44;;;;;;;27.20;13.95;;;;;;;11.34;91.73;98971.41;1697400;84;25709;-66
2022/10/23 06:42:11;;;;;;;23.73;14.35;;;;;;;11.35;91.38;98985.38;1697431;84;25709;-66
2022/10/23 06:44:37;;;;;;;36.93;16.10;;;;;;;11.37;91.36;98985.30;1697126;84;25638;-66
2022/10/23 06:47:05;;;;;;;97.82;32.65;;;;;;;11.39;91.24;98988.55;1697063;84;27456;-66
2022/10/23 06:49:36;;;;;;;174.45;52.17;;;;;;;11.43;91.32;98994.24;1697172;84;25442;-66
2022/10/23 06:52:08;;;;;;;227.47;65.90;;;;;;;11.47;91.49;98997.16;1697527;84;25577;-66
2022/10/23 06:54:46;;;;;;;146.18;46.28;;;;;;;11.49;91.29;98987.48;1697153;84;25719;-66
2022/10/23 06:57:16;;;;;;;79.00;30.75;;;;;;;11.46;91.17;98985.39;1697152;84;25459;-65
2022/10/23 06:59:42;;;;;;;46.05;21.45;;;;;;;11.46;91.10;98988.69;1697165;84;28198;-65
2022/10/23 07:02:09;;;;;;;37.53;17.95;;;;;;;11.50;91.32;98989.67;1697090;84;25499;-65
2022/10/23 07:04:35;;;;;;;38.38;18.20;;;;;;;11.53;91.03;98978.08;1697350;84;25668;-65
2022/10/23 07:07:01;;;;;;;28.57;17.07;;;;;;;11.56;90.95;98978.83;1697208;84;25761;-65
2022/10/23 07:09:28;;;;;;;31.62;18.98;;;;;;;11.56;90.66;98978.83;1697422;84;25621;-65
2022/10/23 07:11:54;;;;;;;29.95;19.30;;;;;;;11.55;90.74;98987.61;1697409;84;27449;-65
2022/10/23 07:14:21;;;;;;;104.53;40.10;;;;;;;11.60;90.62;98978.44;1697466;84;25635;-65
2022/10/23 07:16:48;;;;;;;38.33;19.17;;;;;;;11.66;90.74;98982.68;1697198;84;25672;-66
2022/10/23 07:19:14;;;;;;;26.10;15.40;;;;;;;11.71;90.42;98983.12;1697040;84;25777;-66
2022/10/23 07:21:40;;;;;;;26.25;12.35;;;;;;;11.75;90.20;98989.59;1697158;82;25482;-67
2022/10/23 07:24:07;;;;;;;33.78;16.97;;;;;;;11.72;90.06;98997.11;1697046;84;27400;-67
2022/10/23 07:26:34;;;;;;;78.33;32.98;;;;;;;11.71;90.13;99007.03;1697082;84;25662;-67
2022/10/23 07:29:00;;;;;;;22.02;10.20;;;;;;;11.64;90.05;99007.46;1686012;84;25759;-67
2022/10/23 07:31:27;;;;;;;133.65;49.75;;;;;;;11.59;90.18;99004.83;1693003;84;25623;-67
2022/10/23 07:33:53;;;;;;;24.55;13.45;;;;;;;11.60;90.49;99002.35;1695424;84;25432;-67
2022/10/23 07:36:19;;;;;;;116.75;42.43;;;;;;;11.63;90.51;98998.41;1662884;86;27474;-67
2022/10/23 07:38:46;;;;;;;47.78;21.55;;;;;;;11.70;90.37;99004.02;1728138;82;25695;-67
2022/10/23 07:41:12;;;;;;;46.98;21.82;;;;;;;11.67;89.95;99000.80;1725983;83;25759;-67
2022/10/23 07:43:39;;;;;;;24.35;13.08;;;;;;;11.70;90.09;98997.98;1726416;83;26602;-67
2022/10/23 07:46:08;;;;;;;50.30;23.98;;;;;;;11.72;90.21;98998.48;1725924;83;25745;-67
2022/10/23 07:48:33;;;;;;;82.40;33.48;;;;;;;11.77;90.06;99009.87;1725931;83;26917;-67
2022/10/23 07:51:07;;;;;;;97.02;39.00;;;;;;;11.80;89.96;98996.34;1725949;83;25446;-67
2022/10/23 07:53:33;;;;;;;33.35;17.37;;;;;;;11.83;89.82;98992.15;1725862;83;25706;-67
2022/10/23 07:56:04;;;;;;;37.95;19.67;;;;;;;11.91;90.03;98987.83;1725900;83;25593;-67
2022/10/23 07:58:30;;;;;;;21.50;11.93;;;;;;;12.04;90.07;98986.92;1726389;83;25605;-67
2022/10/23 08:00:59;;;;;;;29.48;16.12;;;;;;;12.08;89.26;98988.52;1725285;83;27460;-67
2022/10/23 08:03:31;;;;;;;17.25;10.00;;;;;;;12.14;89.54;98987.81;1726108;83;25952;-67
2022/10/23 08:05:58;;;;;;;44.13;21.20;;;;;;;12.17;88.75;98985.81;1726385;83;25639;-67
2022/10/23 08:08:26;;;;;;;37.55;18.70;;;;;;;12.15;88.58;98990.83;1726175;83;25766;-67
2022/10/23 08:10:54;;;;;;;225.38;82.08;;;;;;;12.18;88.64;98987.45;1725897;83;25481;-67
2022/10/23 08:13:21;;;;;;;23.27;13.90;;;;;;;12.20;88.55;98987.14;1726364;83;27534;-67
2022/10/23 08:15:50;;;;;;;38.88;20.10;;;;;;;12.20;88.28;98983.80;1720462;82;25656;-67
2022/10/23 08:18:16;;;;;;;43.75;21.75;;;;;;;12.25;88.79;98986.98;1728065;82;25573;-67
2022/10/23 08:20:45;;;;;;;79.70;34.50;;;;;;;12.30;88.57;98996.47;1719957;82;25806;-67
2022/10/23 08:23:15;;;;;;;27.48;14.35;;;;;;;12.32;88.31;98999.69;1712443;83;25430;-67
2022/10/23 08:25:42;;;;;;;56.47;27.30;;;;;;;12.32;87.92;99007.93;1716247;83;27474;-67
2022/10/23 08:28:09;;;;;;;79.05;34.73;;;;;;;12.30;88.19;99001.96;1715732;83;25463;-67
2022/10/23 08:30:37;;;;;;;50.63;25.65;;;;;;;12.30;87.83;98999.22;1716113;83;25435;-67
2022/10/23 08:33:05;;;;;;;21.07;13.18;;;;;;;12.30;87.85;99002.75;1715779;83;25696;-67
2022/10/23 08:35:37;;;;;;;48.50;23.80;;;;;;;12.31;87.52;99002.20;1716124;83;25590;-67
2022/10/23 08:38:05;;;;;;;36.42;20.60;;;;;;;12.39;87.94;99007.48;1716198;83;28152;-67
2022/10/23 08:40:33;;;;;;;48.50;24.30;;;;;;;12.47;87.46;99021.02;1716175;83;25448;-67
2022/10/23 08:43:05;;;;;;;28.15;15.72;;;;;;;12.46;87.31;99020.78;1716360;83;25656;-67
2022/10/23 08:45:48;;;;;;;51.37;24.80;;;;;;;12.49;87.17;99031.14;1716392;83;25696;-67
2022/10/23 08:48:23;;;;;;;34.48;19.35;;;;;;;12.52;87.05;99030.52;1715897;83;25668;-67
2022/10/23 08:51:07;;;;;;;22.70;14.90;;;;;;;12.55;87.10;99036.72;1716095;83;27398;-67
2022/10/23 08:53:47;;;;;;;27.05;16.05;;;;;;;12.61;87.20;99035.45;1715775;83;25435;-67
2022/10/23 08:56:28;;;;;;;39.75;19.62;;;;;;;12.72;86.66;99036.56;1716125;83;25640;-67
2022/10/23 08:59:19;;;;;;;58.90;29.30;;;;;;;12.81;86.98;99041.49;1715965;83;27803;-67
2022/10/23 09:02:04;;;;;;;33.53;18.67;;;;;;;12.90;86.63;99040.16;1722656;83;25609;-67
2022/10/23 09:04:31;;;;;;;80.07;36.90;;;;;;;12.98;86.62;99045.44;1729447;83;27486;-67
2022/10/23 09:07:34;;;;;;;23.70;14.28;;;;;;;13.05;86.45;99056.22;1729414;83;25624;-67
2022/10/23 09:10:18;;;;;;;24.43;14.07;;;;;;;13.16;86.15;99055.91;1729050;83;25443;-66
2022/10/23 09:12:44;;;;;;;34.60;18.55;;;;;;;13.28;85.51;99060.78;1729496;83;25729;-65
2022/10/23 09:15:27;;;;;;;28.50;15.45;;;;;;;13.43;85.16;99067.19;1729460;83;25652;-65
2022/10/23 09:17:59;;;;;;;17.73;11.08;;;;;;;13.53;85.04;99066.66;1729577;83;27420;-66
2022/10/23 09:20:33;;;;;;;22.98;14.47;;;;;;;13.63;85.31;99062.20;1727609;83;25491;-66
2022/10/23 09:23:04;;;;;;;47.95;23.42;;;;;;;13.77;84.97;99060.66;1729313;83;25514;-65
2022/10/23 09:25:37;;;;;;;29.95;16.15;;;;;;;13.88;83.77;99058.94;1728683;83;25774;-65
2022/10/23 09:28:04;;;;;;;15.90;9.63;;;;;;;13.95;83.37;99061.19;1730067;83;25636;-65
2022/10/23 09:30:41;;;;;;;55.98;26.37;;;;;;;13.98;83.11;99056.40;1729410;83;27423;-65
2022/10/23 09:33:21;;;;;;;28.10;15.63;;;;;;;14.03;82.73;99052.11;1729960;83;25644;-65
2022/10/23 09:36:07;;;;;;;46.58;24.63;;;;;;;14.11;83.22;99054.05;1730190;83;25680;-65
2022/10/23 09:38:46;;;;;;;17.12;9.98;;;;;;;14.22;82.68;99058.62;1738221;81;26539;-66
2022/10/23 09:41:29;;;;;;;20.65;12.37;;;;;;;14.31;81.76;99059.99;1733637;81;25702;-66
2022/10/23 09:44:19;;;;;;;15.72;9.95;;;;;;;14.46;82.01;99053.69;1740302;81;27932;-65
2022/10/23 09:46:56;;;;;;;26.27;15.80;;;;;;;14.50;81.07;99037.53;1734547;81;25822;-65
2022/10/23 09:49:29;;;;;;;12.88;8.45;;;;;;;14.50;81.07;99037.53;1723100;81;25465;-65
2022/10/23 09:52:16;;;;;;;12.98;9.10;;;;;;;14.55;79.92;99035.98;1733303;81;25779;-64
2022/10/23 09:54:50;;;;;;;15.25;9.33;;;;;;;14.51;80.36;99021.21;1731828;82;25494;-65
2022/10/23 09:57:37;;;;;;;18.92;10.10;;;;;;;14.67;80.64;99026.17;1733699;82;28122;-65
2022/10/23 10:00:18;;;;;;;18.75;9.68;;;;;;;14.82;80.04;99028.17;1733415;82;25648;-65
2022/10/23 10:03:06;;;;;;;18.45;12.43;;;;;;;15.14;78.75;99031.38;1732478;82;25598;-64
2022/10/23 10:05:36;;;;;;;10.93;7.35;;;;;;;15.28;79.00;99029.16;1732539;82;25670;-65
2022/10/23 10:08:29;;;;;;;11.33;7.72;;;;;;;15.47;77.13;99020.97;1732585;82;25664;-65
2022/10/23 10:11:19;;;;;;;15.40;10.32;;;;;;;15.80;76.86;99014.66;1732051;82;27475;-65
2022/10/23 10:13:59;;;;;;;10.50;6.45;;;;;;;16.17;76.19;99019.50;1731982;82;27145;-65
2022/10/23 10:16:34;;;;;;;7.87;5.92;;;;;;;16.64;73.87;99006.39;1732213;82;25398;-65
2022/10/23 10:19:31;;;;;;;13.32;9.28;;;;;;;17.08;72.95;99009.16;1732471;80;25700;-65
2022/10/23 10:22:36;;;;;;;10.48;7.30;;;;;;;17.53;70.01;99000.35;1732377;82;25631;-65
2022/10/23 10:25:42;;;;;;;9.85;7.05;;;;;;;17.84;71.89;99004.95;1731786;82;27442;-65
2022/10/23 10:28:42;;;;;;;22.62;13.45;;;;;;;17.99;70.90;98994.25;1731943;82;25598;-65
2022/10/23 10:31:22;;;;;;;35.50;17.90;;;;;;;18.15;69.73;98991.52;1686984;85;25524;-65
2022/10/23 10:34:09;;;;;;;23.42;15.85;;;;;;;18.52;70.02;98982.93;1686720;85;25767;-66
2022/10/23 10:36:52;;;;;;;20.23;13.62;;;;;;;18.83;69.46;98985.20;1686341;85;25525;-65
2022/10/23 10:39:37;;;;;;;10.58;7.67;;;;;;;19.29;66.73;98986.03;1687506;85;27397;-65
2022/10/23 10:42:54;;;;;;;8.00;6.55;;;;;;;19.65;64.31;98985.93;1687080;85;25709;-65
2022/10/23 10:45:33;;;;;;;11.65;7.00;;;;;;;19.91;64.99;98981.06;1656561;86;25725;-64
2022/10/23 10:48:17;;;;;;;11.95;7.60;;;;;;;20.29;63.85;98980.53;1657886;86;25753;-64
2022/10/23 10:51:00;;;;;;;8.68;6.67;;;;;;;20.85;63.21;98973.23;1659839;86;25750;-64
2022/10/23 10:54:05;;;;;;;8.35;6.40;;;;;;;21.27;61.78;98965.88;1645691;86;29585;-64
2022/10/23 10:56:37;;;;;;;21.97;15.05;;;;;;;21.67;60.22;98967.70;1659387;86;25553;-63
2022/10/23 10:59:11;;;;;;;9.25;8.03;;;;;;;21.97;56.53;98961.28;1659861;86;25767;-64
2022/10/23 11:01:51;;;;;;;11.22;8.40;;;;;;;22.03;57.27;98960.33;1653835;86;25801;-63
2022/10/23 11:04:43;;;;;;;6.87;5.75;;;;;;;21.93;55.80;98962.63;1659695;86;25549;-63
2022/10/23 11:07:14;;;;;;;11.83;8.78;;;;;;;21.92;55.57;98956.84;1669515;85;27416;-64
2022/10/23 11:09:42;;;;;;;21.05;17.67;;;;;;;21.92;56.45;98944.30;1679064;85;25651;-63
2022/10/23 11:12:23;;;;;;;12.25;10.15;;;;;;;21.99;56.38;98944.16;1679409;85;25633;-63
2022/10/23 11:14:51;;;;;;;11.10;8.40;;;;;;;22.01;56.61;98933.39;1679162;85;25768;-63
2022/10/23 11:17:27;;;;;;;13.50;10.72;;;;;;;21.90;56.82;98936.08;1679262;85;25503;-63
2022/10/23 11:20:11;;;;;;;6.80;5.47;;;;;;;21.79;57.15;98918.66;1679636;85;28040;-64
2022/10/23 11:23:04;;;;;;;12.53;8.08;;;;;;;21.82;55.59;98919.89;1723177;82;25471;-63
2022/10/23 11:26:09;;;;;;;7.60;5.65;;;;;;;22.01;53.85;98918.05;1731274;82;25464;-63
2022/10/23 11:29:27;;;;;;;11.45;9.30;;;;;;;22.22;54.74;98915.23;1732249;82;25782;-63
2022/10/23 11:32:34;;;;;;;23.77;20.23;;;;;;;22.62;55.08;98912.75;1732318;82;25658;-64
2022/10/23 11:35:11;;;;;;;7.00;5.45;;;;;;;22.96;52.74;98903.32;1732171;82;27428;-64
2022/10/23 11:37:38;;;;;;;7.50;6.03;;;;;;;23.16;52.85;98890.64;1731994;81;25926;-63
2022/10/23 11:40:23;;;;;;;7.00;5.80;;;;;;;23.51;53.91;98890.34;1728355;82;25744;-64
2022/10/23 11:42:51;;;;;;;5.37;4.80;;;;;;;23.96;52.16;98886.40;1724739;82;25614;-64
2022/10/23 11:45:34;;;;;;;7.58;6.50;;;;;;;24.38;52.25;98887.59;1732276;82;25466;-63
2022/10/23 11:48:18;;;;;;;5.83;4.60;;;;;;;24.44;49.67;98878.98;1732399;82;27425;-64